createdAt,value
2023-03-29T00:00:14.621Z,101108.34
2023-03-29T00:02:41.802Z,101106.88
2023-03-29T00:05:09.230Z,101112.03
2023-03-29T00:07:35.941Z,101107.06
2023-03-29T00:10:04.671Z,101104.09
2023-03-29T00:12:31.970Z,101106.34
2023-03-29T00:15:03.748Z,101105.63
2023-03-29T00:17:35.887Z,101111.34
2023-03-29T00:20:02.676Z,101106.31
2023-03-29T00:22:29.324Z,101098.63
2023-03-29T00:24:56.015Z,101102.91
2023-03-29T00:27:24.985Z,101099.63
2023-03-29T00:29:51.593Z,101102.63
2023-03-29T00:32:18.241Z,101112.44
2023-03-29T00:34:46.311Z,101121.06
2023-03-29T00:37:14.977Z,101125.53
2023-03-29T00:39:42.266Z,101116.69
2023-03-29T00:42:10.944Z,101114.34
2023-03-29T00:44:52.937Z,101116.91
2023-03-29T00:47:25.787Z,101114.75
2023-03-29T00:49:52.478Z,101112.28
2023-03-29T00:52:21.883Z,101117.41
2023-03-29T00:54:53.108Z,101118.09
2023-03-29T00:57:20.097Z,101120.88
2023-03-29T00:59:46.835Z,101105.41
2023-03-29T01:02:15.868Z,101104.25
2023-03-29T01:04:42.689Z,101110.41
2023-03-29T01:07:09.830Z,101108.31
2023-03-29T01:09:37.788Z,101108.59
2023-03-29T01:12:09.120Z,101112.47
2023-03-29T01:14:38.176Z,101100.19
2023-03-29T01:17:05.718Z,101101.22
2023-03-29T01:19:39.095Z,101105.06
2023-03-29T01:22:13.665Z,101101.75
2023-03-29T01:24:50.661Z,101100.34
2023-03-29T01:27:22.821Z,101088.81
2023-03-29T01:29:51.581Z,101097.25
2023-03-29T01:32:25.497Z,101093.44
2023-03-29T01:34:58.942Z,101098.31
2023-03-29T01:37:37.935Z,101092.78
2023-03-29T01:40:10.035Z,101090.38
2023-03-29T01:42:57.212Z,101092.75
2023-03-29T01:45:28.863Z,101092.09
2023-03-29T01:48:06.184Z,101090.63
2023-03-29T01:50:32.800Z,101085.69
2023-03-29T01:53:22.414Z,101087.38
2023-03-29T01:55:54.967Z,101085.34
2023-03-29T01:58:27.623Z,101078.75
2023-03-29T02:00:55.396Z,101082.03
2023-03-29T02:03:31.240Z,101090.97
2023-03-29T02:06:00.718Z,101090.88
2023-03-29T02:08:29.355Z,101095.69
2023-03-29T02:10:57.259Z,101092.78
2023-03-29T02:13:23.974Z,101093.56
2023-03-29T02:15:50.653Z,101093.06
2023-03-29T02:18:17.780Z,101089.69
2023-03-29T02:20:47.544Z,101087.13
2023-03-29T02:23:18.795Z,101087.28
2023-03-29T02:25:45.825Z,101097.06
2023-03-29T02:28:12.746Z,101093.41
2023-03-29T02:30:42.469Z,101090.91
2023-03-29T02:33:11.680Z,101102.91
2023-03-29T02:35:48.650Z,101101.53
2023-03-29T02:38:15.494Z,101095.75
2023-03-29T02:40:44.842Z,101101.81
2023-03-29T02:43:14.424Z,101107.81
2023-03-29T02:45:41.188Z,101099.09
2023-03-29T02:48:08.996Z,101107.25
2023-03-29T02:50:36.643Z,101105.19
2023-03-29T02:53:27.935Z,101105.00
2023-03-29T02:55:56.641Z,101113.88
2023-03-29T02:58:26.657Z,101108.78
2023-03-29T03:00:55.807Z,101111.81
2023-03-29T03:03:22.531Z,101113.38
2023-03-29T03:05:52.616Z,101114.13
2023-03-29T03:08:21.908Z,101109.03
2023-03-29T03:10:49.132Z,101117.06
2023-03-29T03:13:18.379Z,101117.59
2023-03-29T03:15:49.120Z,101126.44
2023-03-29T03:18:16.765Z,101123.63
2023-03-29T03:20:47.242Z,101129.00
2023-03-29T03:23:15.964Z,101117.75
2023-03-29T03:25:44.792Z,101127.19
2023-03-29T03:28:12.483Z,101124.13
2023-03-29T03:30:39.297Z,101119.25
2023-03-29T03:33:25.169Z,101121.31
2023-03-29T03:36:06.979Z,101119.63
2023-03-29T03:38:36.274Z,101125.00
2023-03-29T03:41:04.281Z,101124.38
2023-03-29T03:43:35.646Z,101124.09
2023-03-29T03:46:02.388Z,101129.22
2023-03-29T03:48:30.059Z,101126.13
2023-03-29T03:51:09.593Z,101124.94
2023-03-29T03:53:36.411Z,101123.13
2023-03-29T03:56:23.591Z,101125.81
2023-03-29T03:59:12.973Z,101129.25
2023-03-29T04:01:55.036Z,101126.16
2023-03-29T04:04:24.149Z,101123.75
2023-03-29T04:07:14.290Z,101136.00
2023-03-29T04:09:55.781Z,101131.91
2023-03-29T04:12:40.745Z,101129.72
2023-03-29T04:15:08.774Z,101123.69
2023-03-29T04:17:36.077Z,101122.91
2023-03-29T04:20:32.085Z,101117.50
2023-03-29T04:23:01.638Z,101130.03
2023-03-29T04:25:28.963Z,101127.44
2023-03-29T04:27:58.281Z,101130.09
2023-03-29T04:30:52.896Z,101128.03
2023-03-29T04:33:57.759Z,101127.91
2023-03-29T04:36:26.380Z,101126.84
2023-03-29T04:38:53.043Z,101127.56
2023-03-29T04:41:50.550Z,101125.06
2023-03-29T04:44:47.892Z,101129.94
2023-03-29T04:47:24.272Z,101121.94
2023-03-29T04:50:00.506Z,101121.06
2023-03-29T04:52:45.469Z,101129.03
2023-03-29T04:55:14.925Z,101123.34
2023-03-29T04:57:54.074Z,101124.28
2023-03-29T05:00:38.192Z,101131.97
2023-03-29T05:10:47.553Z,101133.84
2023-03-29T05:13:14.957Z,101130.09
2023-03-29T05:15:42.026Z,101137.34
2023-03-29T05:18:12.322Z,101142.63
2023-03-29T05:20:43.843Z,101131.38
2023-03-29T05:23:15.210Z,101138.97
2023-03-29T05:26:02.705Z,101124.81
2023-03-29T05:28:29.514Z,101135.00
2023-03-29T05:31:06.278Z,101131.28
2023-03-29T05:33:40.871Z,101129.09
2023-03-29T05:36:11.259Z,101134.41
2023-03-29T05:38:45.177Z,101126.69
2023-03-29T05:41:12.567Z,101131.91
2023-03-29T05:44:08.964Z,101132.50
2023-03-29T05:46:40.462Z,101133.88
2023-03-29T05:49:08.904Z,101139.47
2023-03-29T05:51:57.565Z,101135.63
2023-03-29T05:54:28.058Z,101133.47
2023-03-29T05:56:54.912Z,101137.59
2023-03-29T05:59:23.529Z,101140.72
2023-03-29T06:01:55.329Z,101139.47
2023-03-29T06:04:22.337Z,101135.53
2023-03-29T06:07:02.224Z,101147.53
2023-03-29T06:09:29.386Z,101150.97
2023-03-29T06:12:02.186Z,101154.47
2023-03-29T06:14:28.998Z,101154.50
2023-03-29T06:17:09.842Z,101146.78
2023-03-29T06:19:37.113Z,101155.72
2023-03-29T06:22:03.791Z,101149.59
2023-03-29T06:24:33.092Z,101149.09
2023-03-29T06:27:07.371Z,101165.34
2023-03-29T06:29:36.979Z,101158.19
2023-03-29T06:32:03.860Z,101155.72
2023-03-29T06:34:56.877Z,101160.94
2023-03-29T06:37:40.242Z,101159.88
2023-03-29T06:40:33.489Z,101161.56
2023-03-29T06:43:00.389Z,101159.75
2023-03-29T06:45:31.464Z,101168.91
2023-03-29T06:48:00.381Z,101159.00
2023-03-29T06:50:30.784Z,101160.53
2023-03-29T06:53:07.407Z,101170.53
2023-03-29T06:55:37.187Z,101165.38
2023-03-29T06:58:22.191Z,101167.16
2023-03-29T07:00:49.263Z,101164.03
2023-03-29T07:03:28.017Z,101168.78
2023-03-29T07:06:01.701Z,101165.94
2023-03-29T07:08:31.844Z,101169.22
2023-03-29T07:11:03.378Z,101166.44
2023-03-29T07:13:39.293Z,101180.47
2023-03-29T07:16:12.977Z,101180.78
2023-03-29T07:18:48.572Z,101182.00
2023-03-29T07:21:37.412Z,101192.13
2023-03-29T07:24:06.971Z,101186.28
2023-03-29T07:26:35.060Z,101184.69
2023-03-29T07:29:02.042Z,101192.53
2023-03-29T07:31:35.458Z,101195.03
2023-03-29T07:34:22.660Z,101189.69
2023-03-29T07:36:52.126Z,101191.75
2023-03-29T07:39:18.915Z,101195.75
2023-03-29T07:42:01.500Z,101195.38
2023-03-29T07:44:29.563Z,101197.16
2023-03-29T07:46:56.573Z,101195.50
2023-03-29T07:49:23.329Z,101197.53
2023-03-29T07:51:49.912Z,101194.16
2023-03-29T07:54:16.552Z,101187.09
2023-03-29T07:57:19.061Z,101190.81
2023-03-29T07:59:51.855Z,101196.22
2023-03-29T08:02:24.987Z,101202.63
2023-03-29T08:04:57.495Z,101202.38
2023-03-29T08:07:30.391Z,101190.09
2023-03-29T08:10:20.723Z,101187.69
2023-03-29T08:13:07.450Z,101185.59
2023-03-29T08:16:06.791Z,101194.63
2023-03-29T08:18:38.967Z,101181.63
2023-03-29T08:21:09.994Z,101184.00
2023-03-29T08:23:36.897Z,101180.94
2023-03-29T08:26:12.612Z,101183.69
2023-03-29T08:28:42.512Z,101187.56
2023-03-29T08:31:12.990Z,101180.84
2023-03-29T08:33:44.242Z,101176.16
2023-03-29T08:36:29.477Z,101180.84
2023-03-29T08:39:02.057Z,101181.13
2023-03-29T08:41:37.909Z,101182.63
2023-03-29T08:44:07.997Z,101188.59
2023-03-29T08:47:03.832Z,101184.81
2023-03-29T08:49:36.826Z,101184.53
2023-03-29T08:52:05.734Z,101189.56
2023-03-29T08:54:38.553Z,101189.84
2023-03-29T08:57:17.122Z,101177.28
2023-03-29T08:59:52.448Z,101179.53
2023-03-29T09:02:31.204Z,101171.91
2023-03-29T09:05:07.926Z,101168.31
2023-03-29T09:07:45.264Z,101174.09
2023-03-29T09:10:18.608Z,101171.59
2023-03-29T09:13:03.907Z,101162.25
2023-03-29T09:15:33.787Z,101150.41
2023-03-29T09:18:27.035Z,101139.22
2023-03-29T09:21:03.255Z,101137.78
2023-03-29T09:23:33.457Z,101137.47
2023-03-29T09:26:11.265Z,101144.19
2023-03-29T09:29:09.473Z,101142.13
2023-03-29T09:31:37.396Z,101133.13
2023-03-29T09:34:06.023Z,101140.38
2023-03-29T09:36:57.209Z,101129.75
2023-03-29T09:39:26.573Z,101124.00
2023-03-29T09:42:04.711Z,101125.25
2023-03-29T09:44:33.189Z,101123.69
2023-03-29T09:47:09.391Z,101120.38
2023-03-29T09:49:42.221Z,101108.16
2023-03-29T09:52:10.905Z,101113.06
2023-03-29T09:54:38.477Z,101111.47
2023-03-29T09:57:18.222Z,101105.53
2023-03-29T09:59:46.201Z,101105.06
2023-03-29T10:02:17.716Z,101096.03
2023-03-29T10:04:44.711Z,101086.94
2023-03-29T10:07:16.758Z,101087.50
2023-03-29T10:09:44.679Z,101092.84
2023-03-29T10:12:19.219Z,101095.13
2023-03-29T10:14:49.468Z,101083.44
2023-03-29T10:17:22.441Z,101071.03
2023-03-29T10:20:04.049Z,101076.19
2023-03-29T10:22:37.573Z,101074.69
2023-03-29T10:25:04.986Z,101068.63
2023-03-29T10:27:32.728Z,101063.44
2023-03-29T10:30:00.218Z,101067.22
2023-03-29T10:32:32.495Z,101069.94
2023-03-29T10:35:03.866Z,101059.50
2023-03-29T10:37:35.523Z,101060.25
2023-03-29T10:40:02.139Z,101054.91
2023-03-29T10:42:28.946Z,101047.97
2023-03-29T10:44:58.789Z,101039.44
2023-03-29T10:47:25.787Z,101043.59
2023-03-29T10:49:56.941Z,101039.94
2023-03-29T10:52:24.026Z,101044.91
2023-03-29T10:54:53.953Z,101041.31
2023-03-29T10:57:30.663Z,101038.81
2023-03-29T11:00:06.999Z,101041.31
2023-03-29T11:02:37.005Z,101035.38
2023-03-29T11:05:16.548Z,101026.22
2023-03-29T11:07:48.404Z,101020.16
2023-03-29T11:10:15.639Z,101024.31
2023-03-29T11:12:50.726Z,101021.19
2023-03-29T11:15:17.759Z,101024.41
2023-03-29T11:17:50.830Z,101024.53
2023-03-29T11:20:17.630Z,101020.72
2023-03-29T11:22:57.405Z,101018.13
2023-03-29T11:25:24.654Z,101015.44
2023-03-29T11:27:54.446Z,101009.03
2023-03-29T11:30:34.016Z,101006.75
2023-03-29T11:33:07.208Z,101010.63
2023-03-29T11:35:52.735Z,101013.19
2023-03-29T11:38:27.970Z,100999.19
2023-03-29T11:41:00.238Z,100991.47
2023-03-29T11:43:34.778Z,100992.63
2023-03-29T11:46:09.117Z,100984.69
2023-03-29T11:48:38.819Z,100987.59
2023-03-29T11:51:12.455Z,100990.75
2023-03-29T11:53:46.028Z,100998.63
2023-03-29T11:56:17.480Z,101004.72
2023-03-29T11:58:48.990Z,101006.03
2023-03-29T12:01:31.038Z,101001.78
2023-03-29T12:04:01.159Z,100992.38
2023-03-29T12:06:34.090Z,100981.22
2023-03-29T12:09:04.117Z,100984.63
2023-03-29T12:11:32.303Z,100987.78
2023-03-29T12:14:22.014Z,100975.84
2023-03-29T12:16:57.564Z,100978.19
2023-03-29T12:19:37.565Z,100972.75
2023-03-29T12:22:08.190Z,100967.91
2023-03-29T12:24:40.551Z,100973.28
2023-03-29T12:27:19.954Z,100965.56
2023-03-29T12:30:10.044Z,100956.91
2023-03-29T12:32:45.387Z,100945.56
2023-03-29T12:35:42.237Z,100948.06
2023-03-29T12:38:30.952Z,100944.78
2023-03-29T12:41:17.274Z,100934.53
2023-03-29T12:44:06.878Z,100934.69
2023-03-29T12:47:01.096Z,100941.81
2023-03-29T12:49:28.756Z,100943.31
2023-03-29T12:51:57.183Z,100937.13
2023-03-29T12:54:26.774Z,100937.09
2023-03-29T12:57:00.320Z,100918.31
2023-03-29T12:59:43.009Z,100923.31
2023-03-29T13:02:13.985Z,100913.66
2023-03-29T13:04:46.154Z,100917.94
2023-03-29T13:07:17.151Z,100930.44
2023-03-29T13:09:48.143Z,100926.00
2023-03-29T13:12:18.218Z,100918.78
2023-03-29T13:14:48.565Z,100913.47
2023-03-29T13:17:31.957Z,100915.59
2023-03-29T13:20:09.354Z,100904.41
2023-03-29T13:22:54.238Z,100899.00
2023-03-29T13:25:20.878Z,100894.25
2023-03-29T13:27:59.566Z,100897.91
2023-03-29T13:30:28.648Z,100894.19
2023-03-29T13:33:30.500Z,100894.81
2023-03-29T13:35:57.151Z,100893.75
2023-03-29T13:38:28.905Z,100889.63
2023-03-29T13:40:59.769Z,100889.94
2023-03-29T13:43:32.908Z,100881.03
2023-03-29T13:45:59.552Z,100874.88
2023-03-29T13:48:27.440Z,100876.03
2023-03-29T13:50:55.372Z,100880.06
2023-03-29T13:53:31.721Z,100870.81
2023-03-29T13:56:00.953Z,100859.66
2023-03-29T13:58:38.443Z,100864.50
2023-03-29T14:01:20.892Z,100858.53
2023-03-29T14:03:51.618Z,100851.31
2023-03-29T14:06:27.997Z,100854.28
2023-03-29T14:08:54.657Z,100859.31
2023-03-29T14:11:23.851Z,100858.44
2023-03-29T14:13:57.244Z,100854.97
2023-03-29T14:16:26.281Z,100854.88
2023-03-29T14:18:53.083Z,100855.72
2023-03-29T14:21:20.458Z,100844.75
2023-03-29T14:23:49.970Z,100845.38
2023-03-29T14:26:25.180Z,100850.06
2023-03-29T14:28:56.812Z,100850.16
2023-03-29T14:31:26.211Z,100850.78
2023-03-29T14:33:54.159Z,100851.75
2023-03-29T14:36:22.088Z,100849.28
2023-03-29T14:38:50.919Z,100848.44
2023-03-29T14:41:17.695Z,100870.78
2023-03-29T14:43:46.903Z,100860.44
2023-03-29T14:46:23.154Z,100856.41
2023-03-29T14:48:52.385Z,100848.19
2023-03-29T14:51:23.824Z,100847.53
2023-03-29T14:53:53.484Z,100841.34
2023-03-29T14:56:24.233Z,100847.63
2023-03-29T14:58:52.314Z,100856.59
2023-03-29T15:01:25.007Z,100847.53
2023-03-29T15:04:10.867Z,100849.59
2023-03-29T15:06:50.831Z,100861.41
2023-03-29T15:09:23.118Z,100850.41
2023-03-29T15:11:55.907Z,100849.94
2023-03-29T15:14:23.558Z,100853.25
2023-03-29T15:16:51.427Z,100846.56
2023-03-29T15:19:21.130Z,100841.41
2023-03-29T15:21:49.239Z,100837.69
2023-03-29T15:24:24.480Z,100838.63
2023-03-29T15:26:58.275Z,100837.25
2023-03-29T15:29:26.425Z,100836.31
2023-03-29T15:31:56.988Z,100834.25
2023-03-29T15:34:27.367Z,100828.72
2023-03-29T15:36:57.647Z,100841.91
2023-03-29T15:39:24.946Z,100834.34
2023-03-29T15:41:52.237Z,100829.50
2023-03-29T15:44:29.400Z,100828.72
2023-03-29T15:46:57.767Z,100823.78
2023-03-29T15:49:25.553Z,100820.91
2023-03-29T15:51:57.019Z,100810.69
2023-03-29T15:54:26.199Z,100823.97
2023-03-29T15:56:57.279Z,100823.88
2023-03-29T15:59:28.622Z,100819.34
2023-03-29T16:01:55.484Z,100812.28
2023-03-29T16:07:15.613Z,100808.13
2023-03-29T16:09:42.680Z,100807.56
2023-03-29T16:12:10.009Z,100805.19
2023-03-29T16:14:36.796Z,100806.66
2023-03-29T16:17:04.017Z,100806.47
2023-03-29T16:19:31.327Z,100802.44
2023-03-29T16:21:58.373Z,100802.31
2023-03-29T16:24:26.334Z,100799.88
2023-03-29T16:26:55.384Z,100804.34
2023-03-29T16:29:22.837Z,100796.66
2023-03-29T16:31:49.795Z,100791.34
2023-03-29T16:34:18.987Z,100790.50
2023-03-29T16:36:46.008Z,100792.59
2023-03-29T16:39:16.006Z,100795.75
2023-03-29T16:41:46.908Z,100784.31
2023-03-29T16:44:19.053Z,100787.06
2023-03-29T16:46:49.814Z,100793.13
2023-03-29T16:49:19.328Z,100786.78
2023-03-29T16:51:46.924Z,100793.28
2023-03-29T16:54:17.137Z,100798.63
2023-03-29T16:56:43.910Z,100798.63
2023-03-29T16:59:12.914Z,100793.38
2023-03-29T17:01:44.588Z,100789.25
2023-03-29T17:04:11.692Z,100795.00
2023-03-29T17:06:38.584Z,100793.09
2023-03-29T17:09:07.873Z,100788.91
2023-03-29T17:11:34.715Z,100780.13
2023-03-29T17:14:02.514Z,100791.19
2023-03-29T17:16:29.624Z,100782.63
2023-03-29T17:18:58.483Z,100781.84
2023-03-29T17:21:25.570Z,100788.75
2023-03-29T17:23:52.366Z,100788.22
2023-03-29T17:26:18.996Z,100784.66
2023-03-29T17:28:48.962Z,100793.53
2023-03-29T17:31:16.381Z,100790.44
2023-03-29T17:33:45.452Z,100800.41
2023-03-29T17:36:12.248Z,100796.03
2023-03-29T17:38:39.172Z,100812.09
2023-03-29T17:41:07.128Z,100814.13
2023-03-29T17:43:34.213Z,100797.63
2023-03-29T17:46:01.209Z,100805.19
2023-03-29T17:48:32.888Z,100808.38
2023-03-29T17:50:59.968Z,100806.53
2023-03-29T17:53:27.756Z,100811.44
2023-03-29T17:55:54.481Z,100815.72
2023-03-29T17:58:21.431Z,100814.34
2023-03-29T18:00:48.116Z,100815.03
2023-03-29T18:03:14.940Z,100827.97
2023-03-29T18:05:44.307Z,100829.22
2023-03-29T18:08:13.066Z,100823.09
2023-03-29T18:10:39.978Z,100827.94
2023-03-29T18:13:13.869Z,100831.63
2023-03-29T18:15:44.102Z,100827.34
2023-03-29T18:18:11.238Z,100830.13
2023-03-29T18:20:37.882Z,100837.78
2023-03-29T18:23:04.556Z,100835.53
2023-03-29T18:25:31.229Z,100837.97
2023-03-29T18:27:58.326Z,100839.00
2023-03-29T18:30:30.065Z,100842.63
2023-03-29T18:32:56.682Z,100847.06
2023-03-29T18:35:27.939Z,100848.47
2023-03-29T18:37:55.005Z,100853.25
2023-03-29T18:40:27.640Z,100849.75
2023-03-29T18:42:54.276Z,100850.78
2023-03-29T18:45:22.274Z,100847.81
2023-03-29T18:47:51.010Z,100851.06
2023-03-29T18:50:20.094Z,100844.53
2023-03-29T18:52:46.803Z,100846.28
2023-03-29T18:55:13.396Z,100845.34
2023-03-29T18:57:40.439Z,100852.34
2023-03-29T19:00:12.084Z,100844.59
2023-03-29T19:02:43.260Z,100851.75
2023-03-29T19:05:13.707Z,100845.06
2023-03-29T19:07:40.497Z,100845.13
2023-03-29T19:10:07.826Z,100848.72
2023-03-29T19:12:36.801Z,100846.97
2023-03-29T19:15:05.930Z,100847.94
2023-03-29T19:17:35.107Z,100861.16
2023-03-29T19:20:10.240Z,100858.28
2023-03-29T19:22:41.407Z,100857.72
2023-03-29T19:25:08.423Z,100854.56
2023-03-29T19:27:39.594Z,100849.13
2023-03-29T19:30:06.524Z,100857.53
2023-03-29T19:32:33.840Z,100862.47
2023-03-29T19:35:03.097Z,100871.72
2023-03-29T19:37:29.913Z,100863.59
2023-03-29T19:39:57.143Z,100863.59
2023-03-29T19:42:26.504Z,100860.13
2023-03-29T19:44:53.089Z,100866.03
2023-03-29T19:47:19.674Z,100864.13
2023-03-29T19:49:46.560Z,100863.09
2023-03-29T19:52:15.585Z,100855.78
2023-03-29T19:54:42.584Z,100862.97
2023-03-29T19:57:09.339Z,100858.13
2023-03-29T19:59:40.746Z,100849.69
2023-03-29T20:02:07.763Z,100844.56
2023-03-29T20:04:36.382Z,100846.84
2023-03-29T20:07:13.938Z,100839.66
2023-03-29T20:09:47.974Z,100837.59
2023-03-29T20:12:17.411Z,100848.22
2023-03-29T20:14:44.065Z,100847.34
2023-03-29T20:17:13.100Z,100846.41
2023-03-29T20:19:44.419Z,100838.81
2023-03-29T20:22:11.462Z,100835.25
2023-03-29T20:24:38.202Z,100838.13
2023-03-29T20:27:04.873Z,100837.75
2023-03-29T20:29:34.047Z,100839.75
2023-03-29T20:32:00.837Z,100832.50
2023-03-29T20:34:27.911Z,100833.69
2023-03-29T20:37:00.841Z,100825.94
2023-03-29T20:39:31.495Z,100827.09
2023-03-29T20:42:04.489Z,100821.56
2023-03-29T20:44:32.401Z,100819.19
2023-03-29T20:47:17.285Z,100819.06
2023-03-29T20:50:01.588Z,100819.81
2023-03-29T20:52:30.774Z,100821.50
2023-03-29T20:54:57.496Z,100819.28
2023-03-29T20:57:24.640Z,100820.06
2023-03-29T20:59:56.996Z,100818.16
2023-03-29T21:02:26.335Z,100811.19
2023-03-29T21:04:53.588Z,100811.91
2023-03-29T21:07:21.388Z,100815.81
2023-03-29T21:09:49.856Z,100813.09
2023-03-29T21:12:20.211Z,100815.25
2023-03-29T21:14:47.479Z,100814.31
2023-03-29T21:17:16.467Z,100809.72
2023-03-29T21:19:43.060Z,100815.19
2023-03-29T21:22:13.764Z,100813.38
2023-03-29T21:24:40.626Z,100807.28
2023-03-29T21:27:07.478Z,100813.84
2023-03-29T21:29:37.183Z,100816.03
2023-03-29T21:32:04.687Z,100815.28
2023-03-29T21:34:36.649Z,100815.00
2023-03-29T21:37:03.303Z,100813.97
2023-03-29T21:39:30.545Z,100808.38
2023-03-29T21:41:59.877Z,100810.00
2023-03-29T21:44:26.614Z,100804.56
2023-03-29T21:46:58.495Z,100801.91
2023-03-29T21:49:25.447Z,100802.66
2023-03-29T21:51:52.418Z,100802.38
2023-03-29T21:54:21.447Z,100801.56
2023-03-29T21:56:48.122Z,100799.00
2023-03-29T21:59:15.208Z,100800.69
2023-03-29T22:01:43.978Z,100801.41
2023-03-29T22:04:10.988Z,100803.75
2023-03-29T22:06:37.654Z,100801.75
2023-03-29T22:09:05.143Z,100800.03
2023-03-29T22:11:31.892Z,100801.91
2023-03-29T22:13:58.690Z,100798.44
2023-03-29T22:16:31.507Z,100811.66
2023-03-29T22:21:51.469Z,100809.38
2023-03-29T22:24:18.236Z,100799.66
2023-03-29T22:26:48.141Z,100801.69
2023-03-29T22:29:17.422Z,100806.72
2023-03-29T22:31:44.562Z,100810.59
2023-03-29T22:34:11.587Z,100806.25
2023-03-29T22:36:40.704Z,100803.47
2023-03-29T22:39:11.084Z,100805.91
2023-03-29T22:41:37.754Z,100806.34
2023-03-29T22:44:04.650Z,100813.13
2023-03-29T22:46:31.699Z,100819.19
2023-03-29T22:48:58.476Z,100818.59
2023-03-29T22:51:25.163Z,100821.72
2023-03-29T22:53:54.101Z,100818.56
2023-03-29T22:56:20.781Z,100815.03
2023-03-29T22:58:47.900Z,100814.31
2023-03-29T23:01:14.665Z,100813.38
2023-03-29T23:03:46.591Z,100809.38
2023-03-29T23:06:13.295Z,100808.00
2023-03-29T23:08:45.315Z,100809.97
2023-03-29T23:11:14.433Z,100813.59
2023-03-29T23:13:48.951Z,100822.47
2023-03-29T23:16:15.753Z,100813.75
2023-03-29T23:18:42.460Z,100814.19
2023-03-29T23:21:10.515Z,100819.06
2023-03-29T23:23:37.560Z,100811.91
2023-03-29T23:26:04.442Z,100813.28
2023-03-29T23:28:31.614Z,100810.19
2023-03-29T23:31:05.706Z,100814.03
2023-03-29T23:33:35.326Z,100813.28
2023-03-29T23:36:05.977Z,100815.03
2023-03-29T23:38:36.449Z,100810.34
2023-03-29T23:41:06.806Z,100807.25
2023-03-29T23:43:35.057Z,100812.28
2023-03-29T23:46:15.658Z,100806.59
2023-03-29T23:48:46.203Z,100814.03
2023-03-29T23:51:12.874Z,100806.34
2023-03-29T23:53:41.731Z,100803.03
2023-03-29T23:56:11.000Z,100811.84
2023-03-29T23:58:38.040Z,100803.97
